createdAt,value
2023-04-02T00:00:20.250Z,12.80
2023-04-02T00:03:10.904Z,8.40
2023-04-02T00:05:44.240Z,9.20
2023-04-02T00:08:23.854Z,11.00
2023-04-02T00:10:56.283Z,9.80
2023-04-02T00:13:35.039Z,10.50
2023-04-02T00:16:08.574Z,10.80
2023-04-02T00:18:44.310Z,14.00
2023-04-02T00:21:21.358Z,12.60
2023-04-02T00:23:53.504Z,11.80
2023-04-02T00:26:32.800Z,9.90
2023-04-02T00:29:05.386Z,11.60
2023-04-02T00:31:39.002Z,11.80
2023-04-02T00:34:15.182Z,10.20
2023-04-02T00:36:46.486Z,8.40
2023-04-02T00:39:22.556Z,11.90
2023-04-02T00:41:56.605Z,12.00
2023-04-02T00:44:30.103Z,15.60
2023-04-02T00:47:04.470Z,13.00
2023-04-02T00:49:38.889Z,12.50
2023-04-02T00:52:13.468Z,12.90
2023-04-02T00:54:48.481Z,11.70
2023-04-02T00:57:22.962Z,10.40
2023-04-02T00:59:58.036Z,11.20
2023-04-02T01:02:32.582Z,10.30
2023-04-02T01:05:19.848Z,8.90
2023-04-02T01:08:02.300Z,9.60
2023-04-02T01:10:50.370Z,9.20
2023-04-02T01:13:30.164Z,11.30
2023-04-02T01:16:06.545Z,9.20
2023-04-02T01:18:48.498Z,8.90
2023-04-02T01:21:34.171Z,9.00
2023-04-02T01:24:07.456Z,8.90
2023-04-02T01:26:52.300Z,7.80
2023-04-02T01:29:25.680Z,9.40
2023-04-02T01:32:00.324Z,8.60
2023-04-02T01:34:31.950Z,10.90
2023-04-02T01:37:13.087Z,6.20
2023-04-02T01:42:25.449Z,8.20
2023-04-02T01:45:03.049Z,8.20
2023-04-02T01:47:34.615Z,11.10
2023-04-02T01:50:20.489Z,6.80
2023-04-02T01:52:54.050Z,8.30
2023-04-02T01:55:33.993Z,9.40
2023-04-02T01:58:05.013Z,8.50
2023-04-02T02:03:07.119Z,7.00
2023-04-02T02:05:37.995Z,9.10
2023-04-02T02:08:20.589Z,8.50
2023-04-02T02:10:51.521Z,7.50
2023-04-02T02:13:22.624Z,9.70
2023-04-02T02:18:23.661Z,9.00
2023-04-02T02:20:56.510Z,5.90
2023-04-02T02:23:29.989Z,9.20
2023-04-02T02:26:01.269Z,8.20
2023-04-02T02:28:36.165Z,10.90
2023-04-02T02:31:12.758Z,10.50
2023-04-02T02:33:46.957Z,7.90
2023-04-02T02:36:24.652Z,9.00
2023-04-02T02:38:58.364Z,8.40
2023-04-02T02:41:35.487Z,7.80
2023-04-02T02:44:14.414Z,8.80
2023-04-02T02:46:49.048Z,9.00
2023-04-02T02:49:22.283Z,11.20
2023-04-02T02:51:58.090Z,8.40
2023-04-02T02:54:30.219Z,6.40
2023-04-02T02:57:04.062Z,9.10
2023-04-02T02:59:35.576Z,11.00
2023-04-02T03:02:07.531Z,10.40
2023-04-02T03:04:38.535Z,9.90
2023-04-02T03:07:09.480Z,10.30
2023-04-02T03:09:46.944Z,7.40
2023-04-02T03:12:34.965Z,10.10
2023-04-02T03:15:15.055Z,10.10
2023-04-02T03:17:51.232Z,8.20
2023-04-02T03:20:37.104Z,11.10
2023-04-02T03:23:15.035Z,8.40
2023-04-02T03:25:51.079Z,8.30
2023-04-02T03:28:27.254Z,10.10
2023-04-02T03:31:03.049Z,9.10
2023-04-02T03:33:37.781Z,9.90
2023-04-02T03:36:18.330Z,10.50
2023-04-02T03:38:52.403Z,6.00
2023-04-02T03:41:28.479Z,10.90
2023-04-02T03:44:01.544Z,8.70
2023-04-02T03:46:37.480Z,9.20
2023-04-02T03:49:13.534Z,8.30
2023-04-02T03:51:57.566Z,6.40
2023-04-02T03:54:29.390Z,10.00
2023-04-02T03:57:00.911Z,9.30
2023-04-02T03:59:39.910Z,7.30
2023-04-02T04:02:33.108Z,7.80
2023-04-02T04:05:05.820Z,10.60
2023-04-02T04:07:41.105Z,10.20
2023-04-02T04:10:21.138Z,8.30
2023-04-02T04:12:54.723Z,7.20
2023-04-02T04:15:30.905Z,6.50
2023-04-02T04:18:09.802Z,6.90
2023-04-02T04:20:50.186Z,7.30
2023-04-02T04:23:24.186Z,3.90
2023-04-02T04:26:02.029Z,4.80
2023-04-02T04:28:42.390Z,6.30
2023-04-02T04:31:21.167Z,6.50
2023-04-02T04:33:57.144Z,7.60
2023-04-02T04:36:31.478Z,6.40
2023-04-02T04:39:08.842Z,8.70
2023-04-02T04:41:42.422Z,6.70
2023-04-02T04:44:19.049Z,7.80
2023-04-02T04:46:57.935Z,6.20
2023-04-02T04:49:32.796Z,6.30
2023-04-02T04:52:12.494Z,6.70
2023-04-02T04:54:43.207Z,4.90
2023-04-02T04:57:27.208Z,3.60
2023-04-02T05:00:03.237Z,6.00
2023-04-02T05:02:42.802Z,5.30
2023-04-02T05:05:21.886Z,4.20
2023-04-02T05:07:59.822Z,4.30
2023-04-02T05:10:38.347Z,3.10
2023-04-02T05:13:16.176Z,8.90
2023-04-02T05:15:55.080Z,4.00
2023-04-02T05:18:39.071Z,4.40
2023-04-02T05:21:18.182Z,5.00
2023-04-02T05:23:53.561Z,4.00
2023-04-02T05:26:30.065Z,4.30
2023-04-02T05:29:14.803Z,4.20
2023-04-02T05:31:53.689Z,4.50
2023-04-02T05:34:29.703Z,6.60
2023-04-02T05:37:27.142Z,5.50
2023-04-02T05:41:20.817Z,5.60
2023-04-02T05:45:02.077Z,8.60
2023-04-02T05:48:30.603Z,14.80
2023-04-02T05:51:02.583Z,7.70
2023-04-02T05:53:38.786Z,5.40
2023-04-02T05:56:16.130Z,3.80
2023-04-02T05:58:51.064Z,8.20
2023-04-02T06:01:32.642Z,9.80
2023-04-02T06:04:12.699Z,6.00
2023-04-02T06:06:52.526Z,7.30
2023-04-02T06:09:33.785Z,9.60
2023-04-02T06:14:40.110Z,10.30
2023-04-02T06:17:14.409Z,6.30
2023-04-02T06:19:45.706Z,10.40
2023-04-02T06:22:24.277Z,10.30
2023-04-02T06:24:59.275Z,6.30
2023-04-02T06:27:30.775Z,7.10
2023-04-02T06:30:30.291Z,7.80
2023-04-02T06:32:58.846Z,8.70
2023-04-02T06:35:30.204Z,3.20
2023-04-02T06:38:04.992Z,4.40
2023-04-02T06:40:42.423Z,7.90
2023-04-02T06:43:21.115Z,3.40
2023-04-02T06:45:55.610Z,5.00
2023-04-02T06:48:28.267Z,6.50
2023-04-02T06:51:05.415Z,7.20
2023-04-02T06:53:45.760Z,5.70
2023-04-02T06:56:34.130Z,6.30
2023-04-02T06:59:26.504Z,7.40
2023-04-02T07:02:01.604Z,7.90
2023-04-02T07:04:33.008Z,7.70
2023-04-02T07:07:05.883Z,6.70
2023-04-02T07:09:41.881Z,5.90
2023-04-02T07:12:14.426Z,7.90
2023-04-02T07:14:45.194Z,12.20
2023-04-02T07:17:18.206Z,9.00
2023-04-02T07:19:50.678Z,8.00
2023-04-02T07:22:21.852Z,7.10
2023-04-02T07:24:52.730Z,10.70
2023-04-02T07:27:43.602Z,4.60
2023-04-02T07:30:18.672Z,8.30
2023-04-02T07:32:49.629Z,7.00
2023-04-02T07:35:23.185Z,6.70
2023-04-02T07:38:04.195Z,12.80
2023-04-02T07:43:14.482Z,7.80
2023-04-02T07:45:45.342Z,6.10
2023-04-02T07:48:16.131Z,7.30
2023-04-02T07:50:46.988Z,7.00
2023-04-02T07:53:29.133Z,8.70
2023-04-02T07:56:04.813Z,7.60
2023-04-02T07:58:40.628Z,7.80
2023-04-02T08:01:21.664Z,11.60
2023-04-02T08:03:54.447Z,13.00
2023-04-02T08:06:28.687Z,9.40
2023-04-02T08:09:02.204Z,8.80
2023-04-02T08:11:37.141Z,15.00
2023-04-02T08:14:11.192Z,13.80
2023-04-02T08:17:02.574Z,10.20
2023-04-02T08:19:36.915Z,7.80
2023-04-02T08:22:17.456Z,13.20
2023-04-02T08:24:48.165Z,13.70
2023-04-02T08:27:18.935Z,14.20
2023-04-02T08:29:49.864Z,13.70
2023-04-02T08:32:20.544Z,15.00
2023-04-02T08:34:51.242Z,11.40
2023-04-02T08:37:22.048Z,7.50
2023-04-02T08:39:53.455Z,7.40
2023-04-02T08:42:34.861Z,6.80
2023-04-02T08:47:53.606Z,8.70
2023-04-02T08:50:31.605Z,8.00
2023-04-02T08:53:05.280Z,6.20
2023-04-02T08:55:42.123Z,12.20
2023-04-02T08:58:26.271Z,11.70
2023-04-02T09:01:01.709Z,11.70
2023-04-02T09:03:40.141Z,10.10
2023-04-02T09:06:16.540Z,11.80
2023-04-02T09:08:49.944Z,8.40
2023-04-02T09:11:27.483Z,7.60
2023-04-02T09:13:59.988Z,6.10
2023-04-02T09:16:43.144Z,9.20
2023-04-02T09:19:19.402Z,5.60
2023-04-02T09:22:00.565Z,5.90
2023-04-02T09:27:03.414Z,6.60
2023-04-02T09:29:45.866Z,5.40
2023-04-02T09:32:27.282Z,7.70
2023-04-02T09:35:22.443Z,8.20
2023-04-02T09:38:29.009Z,4.40
2023-04-02T09:41:02.213Z,6.80
2023-04-02T09:43:35.103Z,5.00
2023-04-02T09:46:16.346Z,6.70
2023-04-02T09:48:52.237Z,8.00
2023-04-02T09:51:25.384Z,5.60
2023-04-02T09:54:12.709Z,5.70
2023-04-02T09:57:01.028Z,5.40
2023-04-02T09:59:31.841Z,6.50
2023-04-02T10:02:03.353Z,7.60
2023-04-02T10:04:40.128Z,9.40
2023-04-02T10:07:32.614Z,6.10
2023-04-02T10:10:15.698Z,11.90
2023-04-02T10:12:49.162Z,8.80
2023-04-02T10:15:26.047Z,6.70
2023-04-02T10:18:06.680Z,5.70
2023-04-02T10:20:50.452Z,7.60
2023-04-02T10:23:26.981Z,5.90
2023-04-02T10:26:07.134Z,6.90
2023-04-02T10:28:49.374Z,6.90
2023-04-02T10:31:26.267Z,11.70
2023-04-02T10:34:04.595Z,6.60
2023-04-02T10:36:49.524Z,7.00
2023-04-02T10:39:24.639Z,7.20
2023-04-02T10:42:03.499Z,5.20
2023-04-02T10:44:43.521Z,3.60
2023-04-02T10:47:29.711Z,5.80
2023-04-02T10:50:18.605Z,5.00
2023-04-02T10:52:56.626Z,5.70
2023-04-02T10:55:32.202Z,5.60
2023-04-02T10:58:15.141Z,7.90
2023-04-02T11:00:47.374Z,4.40
2023-04-02T11:03:24.298Z,6.00
2023-04-02T11:05:59.288Z,5.90
2023-04-02T11:08:40.413Z,5.50
2023-04-02T11:13:52.170Z,6.10
2023-04-02T11:16:23.616Z,6.90
2023-04-02T11:19:24.201Z,6.90
2023-04-02T11:22:00.324Z,6.30
2023-04-02T11:24:45.705Z,8.50
2023-04-02T11:27:24.608Z,23.00
2023-04-02T11:30:01.537Z,17.10
2023-04-02T11:32:43.106Z,32.40
2023-04-02T11:35:36.087Z,38.30
2023-04-02T11:38:47.580Z,13.50
2023-04-02T11:42:01.780Z,7.30
2023-04-02T11:44:32.522Z,14.20
2023-04-02T11:47:20.563Z,11.50
2023-04-02T11:50:35.332Z,23.20
2023-04-02T11:53:18.829Z,24.50
2023-04-02T11:56:08.419Z,18.20
2023-04-02T11:59:05.242Z,10.90
2023-04-02T12:01:55.582Z,12.40
2023-04-02T12:05:03.334Z,8.70
2023-04-02T12:08:10.740Z,6.70
2023-04-02T12:10:55.160Z,6.20
2023-04-02T12:13:52.509Z,6.10
2023-04-02T12:16:25.702Z,4.60
2023-04-02T12:18:56.718Z,10.90
2023-04-02T12:21:29.374Z,12.50
2023-04-02T12:24:00.948Z,10.40
2023-04-02T12:26:34.658Z,12.50
2023-04-02T12:29:24.724Z,7.40
2023-04-02T12:31:57.212Z,7.80
2023-04-02T12:34:30.659Z,9.10
2023-04-02T12:37:05.097Z,8.40
2023-04-02T12:39:36.358Z,8.60
2023-04-02T12:42:24.393Z,11.90
2023-04-02T12:44:57.754Z,8.20
2023-04-02T12:47:29.551Z,14.50
2023-04-02T12:50:25.481Z,41.20
2023-04-02T12:52:55.285Z,28.20
2023-04-02T12:55:28.951Z,20.50
2023-04-02T13:00:37.248Z,4.90
2023-04-02T13:03:22.327Z,5.90
2023-04-02T13:05:55.719Z,7.20
2023-04-02T13:08:30.827Z,8.20
2023-04-02T13:11:04.057Z,11.60
2023-04-02T13:13:38.559Z,14.40
2023-04-02T13:16:26.776Z,13.90
2023-04-02T13:19:23.957Z,12.00
2023-04-02T13:21:59.585Z,14.00
2023-04-02T13:24:32.288Z,9.60
2023-04-02T13:27:04.066Z,11.10
2023-04-02T13:29:36.029Z,11.60
2023-04-02T13:32:12.725Z,11.40
2023-04-02T13:34:47.213Z,9.10
2023-04-02T13:37:19.306Z,8.60
2023-04-02T13:39:49.979Z,10.30
2023-04-02T13:42:23.585Z,11.80
2023-04-02T13:44:54.294Z,7.60
2023-04-02T13:47:25.014Z,7.20
2023-04-02T13:49:55.615Z,11.90
2023-04-02T13:52:26.266Z,10.80
2023-04-02T13:54:58.128Z,13.60
2023-04-02T13:57:28.884Z,11.90
2023-04-02T13:59:59.619Z,8.40
2023-04-02T14:02:31.258Z,7.90
2023-04-02T14:05:28.814Z,9.60
2023-04-02T14:08:09.112Z,3.60
2023-04-02T14:10:58.322Z,4.60
2023-04-02T14:13:57.161Z,8.10
2023-04-02T14:16:42.240Z,5.80
2023-04-02T14:19:24.846Z,10.40
2023-04-02T14:22:05.699Z,10.80
2023-04-02T14:24:46.546Z,8.60
2023-04-02T14:27:29.432Z,9.80
2023-04-02T14:30:14.887Z,6.20
2023-04-02T14:32:57.468Z,8.30
2023-04-02T14:35:33.907Z,8.90
2023-04-02T14:38:16.391Z,5.70
2023-04-02T14:40:56.694Z,10.20
2023-04-02T14:43:31.202Z,12.20
2023-04-02T14:46:03.709Z,10.30
2023-04-02T14:48:45.690Z,14.30
2023-04-02T14:51:23.686Z,9.60
2023-04-02T14:54:04.261Z,9.80
2023-04-02T14:56:44.362Z,11.80
2023-04-02T14:59:29.185Z,9.70
2023-04-02T15:02:03.591Z,6.90
2023-04-02T15:04:38.138Z,9.90
2023-04-02T15:07:17.798Z,5.80
2023-04-02T15:09:53.226Z,6.10
2023-04-02T15:12:28.785Z,5.40
2023-04-02T15:15:03.882Z,4.70
2023-04-02T15:17:34.669Z,7.00
2023-04-02T15:20:15.358Z,5.90
2023-04-02T15:23:01.001Z,3.60
2023-04-02T15:25:39.097Z,3.90
2023-04-02T15:28:19.959Z,3.80
2023-04-02T15:30:54.265Z,4.50
2023-04-02T15:33:48.401Z,5.40
2023-04-02T15:36:43.944Z,7.20
2023-04-02T15:39:29.468Z,6.80
2023-04-02T15:42:16.409Z,7.80
2023-04-02T15:44:59.073Z,5.80
2023-04-02T15:47:40.149Z,7.30
2023-04-02T15:50:36.023Z,5.90
2023-04-02T15:53:19.359Z,7.00
2023-04-02T15:55:54.840Z,5.80
2023-04-02T15:58:39.461Z,4.90
2023-04-02T16:01:17.687Z,7.00
2023-04-02T16:04:03.817Z,6.30
2023-04-02T16:06:45.734Z,3.80
2023-04-02T16:09:26.694Z,6.50
2023-04-02T16:12:08.943Z,6.70
2023-04-02T16:15:00.472Z,4.60
2023-04-02T16:17:37.126Z,4.70
2023-04-02T16:20:31.167Z,6.70
2023-04-02T16:23:07.087Z,5.20
2023-04-02T16:25:45.847Z,5.50
2023-04-02T16:28:24.001Z,4.30
2023-04-02T16:31:02.801Z,6.80
2023-04-02T16:33:43.876Z,4.40
2023-04-02T16:36:25.024Z,4.40
2023-04-02T16:41:48.746Z,4.90
2023-04-02T16:44:29.481Z,6.10
2023-04-02T16:47:18.255Z,8.60
2023-04-02T16:49:56.837Z,9.60
2023-04-02T16:52:43.025Z,9.80
2023-04-02T16:55:36.900Z,11.50
2023-04-02T16:58:22.998Z,8.70
2023-04-02T17:00:58.547Z,11.50
2023-04-02T17:04:00.709Z,10.90
2023-04-02T17:06:42.214Z,7.50
2023-04-02T17:09:23.908Z,7.80
2023-04-02T17:12:22.447Z,8.90
2023-04-02T17:14:55.221Z,10.20
2023-04-02T17:17:26.502Z,9.50
2023-04-02T17:20:01.580Z,9.90
2023-04-02T17:22:33.191Z,8.70
2023-04-02T17:25:12.649Z,8.20
2023-04-02T17:27:52.341Z,11.30
2023-04-02T17:30:29.956Z,12.40
2023-04-02T17:33:00.742Z,11.20
2023-04-02T17:35:41.871Z,11.50
2023-04-02T17:40:54.185Z,8.00
2023-04-02T17:43:41.287Z,10.50
2023-04-02T17:46:22.515Z,8.80
2023-04-02T17:49:00.445Z,9.00
2023-04-02T17:51:39.929Z,9.20
2023-04-02T17:54:28.504Z,9.80
2023-04-02T17:57:28.395Z,8.70
2023-04-02T18:00:41.858Z,11.20
2023-04-02T18:03:51.268Z,12.10
2023-04-02T18:06:27.828Z,13.70
2023-04-02T18:09:36.768Z,10.20
2023-04-02T18:12:24.824Z,12.80
2023-04-02T18:15:09.325Z,9.80
2023-04-02T18:17:54.219Z,10.50
2023-04-02T18:20:32.873Z,9.30
2023-04-02T18:23:11.195Z,12.80
2023-04-02T18:25:54.163Z,7.90
2023-04-02T18:28:46.743Z,6.80
2023-04-02T18:31:27.143Z,7.50
2023-04-02T18:34:45.645Z,8.20
2023-04-02T18:37:23.881Z,4.90
2023-04-02T18:40:37.150Z,6.60
2023-04-02T18:43:27.529Z,7.70
2023-04-02T18:46:04.984Z,8.70
2023-04-02T18:48:45.067Z,7.70
2023-04-02T18:51:21.110Z,6.20
2023-04-02T18:53:55.202Z,7.20
2023-04-02T18:56:28.999Z,10.80
2023-04-02T18:59:12.449Z,5.10
2023-04-02T19:01:48.958Z,7.50
2023-04-02T19:04:25.393Z,9.00
2023-04-02T19:07:02.960Z,6.30
2023-04-02T19:09:38.306Z,9.40
2023-04-02T19:12:19.933Z,11.20
2023-04-02T19:14:52.471Z,10.70
2023-04-02T19:17:29.736Z,13.40
2023-04-02T19:20:07.982Z,10.30
2023-04-02T19:22:46.054Z,13.00
2023-04-02T19:25:41.193Z,14.40
2023-04-02T19:28:24.098Z,13.30
2023-04-02T19:31:30.833Z,11.50
2023-04-02T19:34:09.219Z,11.10
2023-04-02T19:36:51.227Z,12.30
2023-04-02T19:39:59.163Z,11.00
2023-04-02T19:42:42.419Z,13.50
2023-04-02T19:45:40.120Z,9.10
2023-04-02T19:48:16.874Z,7.30
2023-04-02T19:50:48.847Z,9.50
2023-04-02T19:53:20.018Z,10.50
2023-04-02T19:58:26.180Z,9.10
2023-04-02T20:00:58.789Z,9.80
2023-04-02T20:03:30.166Z,14.80
2023-04-02T20:06:00.858Z,15.00
2023-04-02T20:08:33.062Z,17.70
2023-04-02T20:11:04.123Z,14.50
2023-04-02T20:16:05.845Z,19.30
2023-04-02T20:18:36.563Z,22.60
2023-04-02T20:21:08.410Z,21.60
2023-04-02T20:23:39.117Z,23.90
2023-04-02T20:26:10.571Z,18.60
2023-04-02T20:28:41.321Z,22.80
2023-04-02T20:31:14.037Z,23.20
2023-04-02T20:33:45.184Z,13.80
2023-04-02T20:36:17.968Z,15.00
2023-04-02T20:38:48.625Z,23.30
2023-04-02T20:41:19.837Z,18.30
2023-04-02T20:43:50.521Z,15.10
2023-04-02T20:46:21.198Z,14.60
2023-04-02T20:48:51.851Z,14.80
2023-04-02T20:51:22.664Z,11.30
2023-04-02T20:53:53.432Z,17.50
2023-04-02T20:56:27.263Z,12.70
2023-04-02T20:58:57.935Z,14.30
2023-04-02T21:01:30.970Z,10.70
2023-04-02T21:04:03.524Z,9.30
2023-04-02T21:06:36.561Z,8.40
2023-04-02T21:09:11.248Z,11.30
2023-04-02T21:11:41.989Z,14.10
2023-04-02T21:14:13.102Z,10.30
2023-04-02T21:19:13.016Z,10.20
2023-04-02T21:21:43.689Z,10.30
2023-04-02T21:24:14.419Z,10.20
2023-04-02T21:26:45.066Z,10.90
2023-04-02T21:29:16.481Z,11.20
2023-04-02T21:31:47.276Z,12.30
2023-04-02T21:34:28.583Z,18.80
2023-04-02T21:36:59.277Z,14.70
2023-04-02T21:39:29.961Z,15.90
2023-04-02T21:42:01.616Z,18.10
2023-04-02T21:44:32.329Z,14.40
2023-04-02T21:47:03.054Z,12.00
2023-04-02T21:49:33.753Z,12.10
2023-04-02T21:52:04.514Z,16.40
2023-04-02T21:54:35.127Z,13.10
2023-04-02T21:57:05.929Z,10.50
2023-04-02T21:59:36.721Z,13.00
2023-04-02T22:02:07.382Z,15.10
2023-04-02T22:04:38.003Z,13.00
2023-04-02T22:07:11.511Z,10.60
2023-04-02T22:09:52.064Z,10.10
2023-04-02T22:12:22.907Z,12.80
2023-04-02T22:14:53.604Z,9.30
2023-04-02T22:17:24.313Z,10.20
2023-04-02T22:19:57.482Z,11.50
2023-04-02T22:22:28.125Z,11.70
2023-04-02T22:24:58.861Z,13.00
2023-04-02T22:27:29.560Z,9.10
2023-04-02T22:30:00.219Z,9.30
2023-04-02T22:32:30.968Z,9.80
2023-04-02T22:35:01.667Z,9.50
2023-04-02T22:37:32.508Z,10.70
2023-04-02T22:40:03.382Z,9.90
2023-04-02T22:42:34.604Z,11.30
2023-04-02T22:45:06.368Z,8.50
2023-04-02T22:47:37.102Z,10.70
2023-04-02T22:50:09.224Z,10.40
2023-04-02T22:52:39.861Z,13.70
2023-04-02T22:55:13.688Z,6.00
2023-04-02T22:57:44.748Z,12.40
2023-04-02T23:02:46.361Z,8.50
2023-04-02T23:05:17.267Z,13.10
2023-04-02T23:07:48.944Z,15.30
2023-04-02T23:10:19.793Z,6.20
2023-04-02T23:12:50.587Z,10.90
2023-04-02T23:15:21.175Z,6.70
2023-04-02T23:17:51.880Z,7.80
2023-04-02T23:20:22.532Z,8.90
2023-04-02T23:22:53.184Z,12.20
2023-04-02T23:25:23.809Z,9.70
2023-04-02T23:27:54.465Z,7.30
2023-04-02T23:30:25.191Z,8.60
2023-04-02T23:32:55.884Z,8.60
2023-04-02T23:35:26.616Z,11.50
2023-04-02T23:37:57.283Z,9.10
2023-04-02T23:40:27.983Z,13.30
2023-04-02T23:43:05.407Z,10.00
2023-04-02T23:45:36.054Z,7.70
2023-04-02T23:48:08.395Z,10.00
2023-04-02T23:50:39.204Z,12.50
2023-04-02T23:53:09.909Z,10.40
2023-04-02T23:55:40.721Z,6.60
2023-04-02T23:58:11.461Z,7.10
